Open Text Price to Free Cash Flow Ratio 2006-2021 | OTEX

Historical price to free cash flow ratio values for Open Text (OTEX) since 2006. For more information on how our historical price data is adjusted see the Stock Price Adjustment Guide.
Open Text Price to Free Cash Flow Ratio Historical Data
Date Stock Price TTM FCF per Share Price to FCF Ratio
2021-09-20 50.38 16.96
2021-06-30 50.60 $2.97 17.03
2021-03-31 47.32 $2.95 16.02
2020-12-31 44.89 $3.93 11.43
2020-09-30 41.52 $3.61 11.51
2020-06-30 41.59 $3.24 12.82
2020-03-31 34.05 $3.08 11.06
2019-12-31 42.79 $2.92 14.63
2019-09-30 39.47 $2.90 13.60
2019-06-30 39.67 $3.01 13.18
2019-03-31 36.84 $2.89 12.75
2018-12-31 31.12 $2.80 11.11
2018-09-30 36.32 $2.66 13.65
2018-06-30 33.47 $2.25 14.85
2018-03-31 32.96 $1.90 17.36
2017-12-31 33.65 $1.47 22.86
2017-09-30 30.34 $1.33 22.84
2017-06-30 29.51 $1.41 20.99
2017-03-31 31.70 $1.48 21.45
2016-12-31 28.70 $1.70 16.89
2016-09-30 30.01 $1.77 16.91
2016-06-30 27.27 $1.87 14.61
2016-03-31 23.78 $1.94 12.26
2015-12-31 21.92 $1.77 12.40
2015-09-30 20.38 $1.68 12.12
2015-06-30 18.37 $1.81 10.13
2015-03-31 23.86 $1.86 12.84
2014-12-31 26.21 $1.86 14.08
2014-09-30 24.86 $1.69 14.68
2014-06-30 21.44 $1.55 13.79
2014-03-31 21.26 $1.28 16.55
2013-12-31 20.43 $1.22 16.75
2013-09-30 16.52 $1.31 12.60
2013-06-30 15.09 $1.25 12.07
2013-03-31 12.95 $1.33 9.76
2012-12-31 12.26 $1.25 9.83
2012-09-30 12.10 $1.11 10.95
2012-06-30 10.95 $1.02 10.69
2012-03-31 13.42 $0.88 15.27
2011-12-31 11.22 $0.79 14.23
2011-09-30 11.44 $0.77 14.76
2011-06-30 14.05 $0.80 17.64
2011-03-31 13.68 $0.88 15.49
2010-12-31 10.11 $0.91 11.17
2010-09-30 10.32 $0.89 11.60
2010-06-30 8.24 $0.69 11.86
2010-03-31 10.42 $1.20 8.71
2009-12-31 8.92 $0.58 15.38
2009-09-30 8.19 $0.65 12.58
2009-06-30 7.99 $0.76 10.46
2009-03-31 7.56 $0.20 37.77
2008-12-31 6.61 $0.72 9.19
2008-09-30 7.59 $0.70 10.87
2008-06-30 7.04 $0.75 9.40
2008-03-31 6.87 $0.68 10.09
2007-12-31 6.90 $0.69 10.06
2007-09-30 5.70 $0.63 9.08
2007-06-30 4.77 $0.51 9.33
2007-03-31 4.82 $0.45 10.82
2006-12-31 4.45 $0.36 12.50
Sector Industry Market Cap Revenue
Computer and Technology Computer Software $13.691B $3.386B
Open Text Corporation is engaged in development of innovative intranet, extranet and e-Business applications. Since creating one of the first search engines to index the World Wide Web, the company has remained at the forefront of Internet-based technologies. Open Text solutions allow individuals, teams, organizations, and global trading communities to collaborate on projects, share ideas and accelerate innovation to the fastest possible speed. Open Text Corporation is headquartered in Waterloo, Canada.
Stock Name Country Market Cap PE Ratio
Microsoft (MSFT) United States $2211.632B 36.93
Adobe (ADBE) United States $305.511B 65.84
Salesforce, Inc (CRM) United States $252.797B 75.50
Oracle (ORCL) United States $235.949B 20.37
SAP SE (SAP) Germany $170.971B 21.75
Intuit (INTU) United States $151.402B 73.92
Dassault Systemes SA (DASTY) France $78.076B 68.55
Autodesk (ADSK) United States $62.350B 104.26
VMware (VMW) United States $58.173B 27.35
Synopsys (SNPS) United States $48.999B 66.94
Cadence Design Systems (CDNS) United States $44.542B 62.38
ANSYS (ANSS) United States $31.097B 62.53
SS&C Technologies Holdings (SSNC) United States $17.702B 15.87
Nuance Communications (NUAN) United States $17.355B 153.28
PTC (PTC) United States $14.173B 49.48
Citrix Systems (CTXS) United States $13.703B 32.25
Pegasystems (PEGA) United States $10.544B 0.00
Manhattan Associates (MANH) United States $9.893B 105.43
Aspen Technology (AZPN) United States $8.430B 37.40
Trend Micro (TMICY) Japan $7.949B 29.73
Descartes Systems Group (DSGX) Canada $6.981B 99.40
MicroStrategy (MSTR) United States $5.735B 106.40
BlackBerry (BB) Canada $5.347B 235.75
Cornerstone OnDemand (CSOD) United States $3.822B 22.19
ACI Worldwide (ACIW) United States $3.617B 21.09
CommVault Systems (CVLT) United States $3.384B 87.82
Blackbaud (BLKB) United States $3.330B 56.78
Verint Systems (VRNT) United States $2.850B 20.65
Progress Software (PRGS) United States $1.970B 15.21
QAD (QADB) United States $1.826B 120.75
Bottomline Technologies (EPAY) United States $1.823B 173.70
PROS Holdings (PRO) United States $1.678B 0.00
Sapiens (SPNS) Israel $1.544B 27.63
OptimizeRx (OPRX) United States $1.248B 644.18
Avid Technology (AVID) United States $1.231B 30.68
Canaan (CAN) China $1.153B 0.00
Magic Software Enterprises (MGIC) Israel $0.978B 23.75
Simulations Plus (SLP) United States $0.809B 70.47
American Software (AMSWA) United States $0.793B 85.07
Icad Inc (ICAD) United States $0.258B 0.00
Smith Micro Software (SMSI) United States $0.245B 0.00
ServiceSource (SREV) United States $0.134B 0.00
Park City (PCYG) United States $0.103B 48.18
Neonode (NEON) Sweden $0.070B 0.00
BSQUARE (BSQR) United States $0.046B 0.00
NetSol Technologies (NTWK) United States $0.043B 17.18
GSE Systems (GVP) United States $0.027B 0.00